Time;durP1;ratioP1;P1;durP2;ratioP2;P2;SDS_P1;SDS_P2;PMS_P1;PMS_P2;Temp;Humidity;BMP_temperature;BMP_pressure;BME280_temperature;BME280_humidity;BME280_pressure;Samples;Min_cycle;Max_cycle;Signal;HPM_P1;HPM_P2
2023/09/09 00:01:35;;;;;;;12.10;8.38;;;19.80;99.90;;;;;;4995124;28;20125;-41
2023/09/09 00:04:03;;;;;;;13.13;9.07;;;19.80;99.90;;;;;;4995103;28;20388;-41
2023/09/09 00:06:28;;;;;;;13.15;9.63;;;19.80;99.90;;;;;;4995033;28;20442;-41
2023/09/09 00:08:54;;;;;;;12.55;8.73;;;19.90;99.90;;;;;;4994972;28;20042;-41
2023/09/09 00:11:20;;;;;;;14.68;9.32;;;19.90;99.90;;;;;;4995013;28;20046;-42
2023/09/09 00:13:46;;;;;;;14.73;8.75;;;19.90;99.90;;;;;;4995017;28;20444;-41
2023/09/09 00:16:12;;;;;;;14.27;9.57;;;20.00;99.90;;;;;;4994952;28;20085;-41
2023/09/09 00:18:37;;;;;;;13.80;9.10;;;19.90;99.90;;;;;;4977612;28;20046;-41
2023/09/09 00:21:04;;;;;;;15.13;9.32;;;20.00;99.90;;;;;;4994765;28;20042;-41
2023/09/09 00:23:30;;;;;;;13.25;8.90;;;19.90;99.90;;;;;;4994829;28;20054;-41
2023/09/09 00:25:56;;;;;;;12.68;9.15;;;19.90;99.90;;;;;;4994529;28;20522;-41
2023/09/09 00:28:23;;;;;;;12.57;8.70;;;19.90;99.90;;;;;;4994604;28;20038;-41
2023/09/09 00:30:49;;;;;;;13.55;8.43;;;19.90;99.90;;;;;;4994912;28;20054;-41
2023/09/09 00:33:14;;;;;;;10.88;7.78;;;19.80;99.90;;;;;;4994638;28;20050;-41
2023/09/09 00:35:40;;;;;;;13.65;7.90;;;19.80;99.90;;;;;;4994322;28;20105;-42
2023/09/09 00:38:09;;;;;;;9.85;6.90;;;19.80;99.90;;;;;;4994594;28;20042;-41
2023/09/09 00:40:35;;;;;;;10.35;6.75;;;19.70;99.90;;;;;;4994497;28;20046;-41
2023/09/09 00:43:01;;;;;;;10.18;6.78;;;19.70;99.90;;;;;;4994490;28;20050;-41
2023/09/09 00:45:27;;;;;;;10.73;7.40;;;19.60;99.90;;;;;;4994463;28;20042;-41
2023/09/09 00:47:53;;;;;;;10.77;6.38;;;19.70;99.90;;;;;;4994432;28;20042;-42
2023/09/09 00:50:20;;;;;;;10.32;7.10;;;19.60;99.90;;;;;;4994130;28;20102;-42
2023/09/09 00:52:49;;;;;;;11.73;8.00;;;19.60;99.90;;;;;;4994395;28;20145;-41
2023/09/09 00:55:15;;;;;;;12.15;7.80;;;19.60;99.90;;;;;;4994345;28;20046;-41
2023/09/09 00:57:41;;;;;;;;;;;19.60;99.90;;;;;;4994745;28;20448;-42
2023/09/09 01:00:09;;;;;;;11.07;7.60;;;19.60;99.90;;;;;;4993541;28;19961;-41
2023/09/09 01:02:39;;;;;;;11.07;7.85;;;19.60;99.90;;;;;;4994087;28;20046;-42
2023/09/09 01:05:06;;;;;;;12.25;8.13;;;19.60;99.90;;;;;;4994027;28;20054;-41
2023/09/09 01:07:48;;;;;;;9.27;6.30;;;19.60;99.90;;;;;;4994171;28;20043;-41
2023/09/09 01:10:15;;;;;;;8.00;5.15;;;19.50;99.90;;;;;;4994285;28;20419;-41
2023/09/09 01:12:42;;;;;;;7.22;5.10;;;19.50;99.90;;;;;;4994165;28;20047;-41
2023/09/09 01:15:08;;;;;;;8.50;5.75;;;19.50;99.90;;;;;;4993947;28;20050;-41
2023/09/09 01:17:35;;;;;;;9.38;6.18;;;19.40;99.90;;;;;;4993830;28;20053;-42
2023/09/09 01:20:15;;;;;;;8.73;6.05;;;19.40;99.90;;;;;;4994120;28;20038;-41
2023/09/09 01:22:48;;;;;;;11.85;8.00;;;19.40;99.90;;;;;;4994314;28;20042;-41
2023/09/09 01:25:14;;;;;;;13.35;8.50;;;19.40;99.90;;;;;;4994111;28;20050;-41
2023/09/09 01:27:40;;;;;;;11.80;8.68;;;19.40;99.90;;;;;;4976599;28;20046;-42
2023/09/09 01:30:08;;;;;;;12.15;8.30;;;19.30;99.90;;;;;;4994221;28;20094;-42
2023/09/09 01:32:34;;;;;;;11.68;7.90;;;19.30;99.90;;;;;;4993926;28;20050;-42
2023/09/09 01:35:00;;;;;;;12.30;8.65;;;19.20;99.90;;;;;;4993728;28;20042;-41
2023/09/09 01:37:25;;;;;;;11.60;8.75;;;19.20;99.90;;;;;;4994071;28;20047;-41
2023/09/09 01:39:51;;;;;;;14.68;9.05;;;19.20;99.90;;;;;;4993799;28;20078;-41
2023/09/09 01:42:17;;;;;;;12.65;8.43;;;19.20;99.90;;;;;;4993702;28;20051;-41
2023/09/09 01:44:46;;;;;;;13.52;8.52;;;19.20;99.90;;;;;;4993629;28;20042;-41
2023/09/09 01:47:13;;;;;;;12.35;8.63;;;19.10;99.90;;;;;;4994045;28;20089;-41
2023/09/09 01:49:41;;;;;;;11.00;8.55;;;19.10;99.90;;;;;;4976744;28;20463;-41
2023/09/09 01:52:07;;;;;;;15.07;10.70;;;19.00;99.90;;;;;;4993762;28;20058;-41
2023/09/09 01:54:33;;;;;;;16.13;10.90;;;19.00;99.90;;;;;;4976497;28;20061;-42
2023/09/09 01:56:59;;;;;;;15.07;10.05;;;19.00;99.90;;;;;;4993616;28;20047;-43
2023/09/09 01:59:25;;;;;;;13.10;9.48;;;19.00;99.90;;;;;;4993780;28;20042;-41
2023/09/09 02:01:50;;;;;;;14.68;9.02;;;19.00;99.90;;;;;;4993745;28;20089;-41
2023/09/09 02:04:16;;;;;;;13.00;8.80;;;19.00;99.90;;;;;;4993690;28;20077;-41
2023/09/09 02:06:43;;;;;;;13.98;8.80;;;18.90;99.90;;;;;;4993728;28;20407;-41
2023/09/09 02:09:09;;;;;;;12.05;8.50;;;19.00;99.90;;;;;;4993442;28;20046;-41
2023/09/09 02:11:34;;;;;;;13.23;8.80;;;18.90;99.90;;;;;;4996404;28;20046;-42
2023/09/09 02:14:00;;;;;;;12.10;7.88;;;18.90;99.90;;;;;;4997180;28;20056;-41
2023/09/09 02:16:26;;;;;;;11.90;8.23;;;19.00;99.90;;;;;;5012255;28;20133;-41
2023/09/09 02:18:51;;;;;;;12.20;8.20;;;19.00;99.90;;;;;;4979728;28;20128;-41
2023/09/09 02:21:17;;;;;;;12.65;8.68;;;19.00;99.90;;;;;;4997148;28;20398;-41
2023/09/09 02:23:43;;;;;;;13.32;8.93;;;19.00;99.90;;;;;;4996997;28;20495;-41
2023/09/09 02:26:08;;;;;;;12.77;8.80;;;19.10;99.90;;;;;;4979593;28;20400;-41
2023/09/09 02:28:34;;;;;;;12.32;8.98;;;19.10;99.90;;;;;;4996603;28;20066;-41
2023/09/09 02:31:00;;;;;;;14.25;9.05;;;19.10;99.90;;;;;;4979520;28;20050;-41
2023/09/09 02:33:26;;;;;;;12.23;8.43;;;19.10;99.90;;;;;;4996847;28;20046;-41
2023/09/09 02:35:52;;;;;;;11.90;8.63;;;19.10;99.90;;;;;;4996850;28;20538;-41
2023/09/09 02:38:17;;;;;;;13.00;8.95;;;19.10;99.90;;;;;;5011776;28;20129;-41
2023/09/09 02:40:43;;;;;;;11.18;7.18;;;19.10;99.90;;;;;;4979153;28;20129;-41
2023/09/09 02:43:10;;;;;;;12.27;8.50;;;19.10;99.90;;;;;;4996498;28;20046;-41
2023/09/09 02:45:40;;;;;;;11.15;7.97;;;19.10;99.90;;;;;;4997199;28;20047;-41
2023/09/09 02:48:05;;;;;;;13.55;8.57;;;19.10;99.90;;;;;;4996427;28;20042;-41
2023/09/09 02:50:31;;;;;;;12.55;7.75;;;19.10;99.90;;;;;;4996589;28;20057;-41
2023/09/09 02:52:57;;;;;;;11.75;8.10;;;19.10;99.90;;;;;;4996506;28;20145;-41
2023/09/09 02:55:22;;;;;;;15.60;8.82;;;19.10;99.90;;;;;;4979134;28;20054;-41
2023/09/09 02:57:51;;;;;;;15.50;8.82;;;19.10;99.90;;;;;;4996437;28;20046;-41
2023/09/09 03:00:17;;;;;;;11.50;8.40;;;19.10;99.90;;;;;;4979328;28;20133;-41
2023/09/09 03:02:43;;;;;;;13.43;9.23;;;19.10;99.90;;;;;;4996222;28;20181;-41
2023/09/09 03:05:12;;;;;;;14.75;9.40;;;19.10;99.90;;;;;;4996163;28;20100;-41
2023/09/09 03:07:39;;;;;;;14.10;9.93;;;19.10;99.90;;;;;;4995924;28;20120;-41
2023/09/09 03:10:05;;;;;;;17.60;10.50;;;19.10;99.90;;;;;;4995997;28;20057;-41
2023/09/09 03:12:31;;;;;;;;;;;19.10;99.90;;;;;;4996559;28;20046;-41
2023/09/09 03:14:56;;;;;;;15.18;9.75;;;19.20;99.90;;;;;;4996187;28;19922;-41
2023/09/09 03:17:22;;;;;;;13.75;9.43;;;19.10;99.90;;;;;;4995981;28;20043;-41
2023/09/09 03:19:48;;;;;;;14.38;9.45;;;19.10;99.90;;;;;;4995983;28;20082;-41
2023/09/09 03:22:13;;;;;;;14.85;9.55;;;19.20;99.90;;;;;;4995186;28;20097;-41
2023/09/09 03:24:39;;;;;;;15.45;10.15;;;19.20;99.90;;;;;;4995776;28;20081;-41
2023/09/09 03:27:05;;;;;;;14.75;10.13;;;19.20;99.90;;;;;;4995868;28;20054;-42
2023/09/09 03:29:30;;;;;;;14.07;9.43;;;19.20;99.90;;;;;;4978319;28;20058;-41
2023/09/09 03:31:56;;;;;;;12.57;8.38;;;19.20;99.90;;;;;;4995839;28;20399;-41
2023/09/09 03:34:22;;;;;;;16.15;9.23;;;19.20;99.90;;;;;;4995695;28;20050;-41
2023/09/09 03:36:48;;;;;;;12.90;9.30;;;19.20;99.90;;;;;;4995649;28;20047;-41
2023/09/09 03:39:13;;;;;;;14.88;10.05;;;19.20;99.90;;;;;;4995547;28;20046;-41
2023/09/09 03:41:39;;;;;;;14.80;9.73;;;19.20;99.90;;;;;;4995349;28;20042;-41
2023/09/09 03:44:05;;;;;;;15.02;9.85;;;19.20;99.90;;;;;;4995572;28;20050;-41
2023/09/09 03:46:31;;;;;;;14.27;9.82;;;19.20;99.90;;;;;;4995415;28;20046;-41
2023/09/09 03:48:56;;;;;;;15.50;9.82;;;19.10;99.90;;;;;;4995314;28;20049;-41
2023/09/09 03:51:22;;;;;;;15.23;11.23;;;19.10;99.90;;;;;;4978033;28;20508;-41
2023/09/09 03:53:48;;;;;;;14.38;10.32;;;19.10;99.90;;;;;;4995148;28;20054;-41
2023/09/09 03:56:15;;;;;;;15.88;10.32;;;19.10;99.90;;;;;;4995433;28;20093;-41
2023/09/09 03:58:41;;;;;;;14.10;10.10;;;19.10;99.90;;;;;;4995775;28;20108;-41
2023/09/09 04:01:09;;;;;;;14.68;9.40;;;19.10;99.90;;;;;;4978006;28;20476;-41
2023/09/09 04:03:36;;;;;;;14.68;10.20;;;19.10;99.90;;;;;;4995035;28;20483;-41
2023/09/09 04:06:07;;;;;;;13.98;9.93;;;19.00;99.90;;;;;;5010582;28;20042;-41
2023/09/09 04:08:34;;;;;;;17.10;11.13;;;19.00;99.90;;;;;;4994795;28;20120;-41
2023/09/09 04:11:00;;;;;;;13.82;9.75;;;19.00;99.90;;;;;;4995014;28;20372;-41
2023/09/09 04:13:26;;;;;;;14.43;9.13;;;19.00;99.90;;;;;;4994999;28;20048;-41
2023/09/09 04:15:56;;;;;;;14.23;9.30;;;18.90;99.90;;;;;;4994932;28;20047;-41
2023/09/09 04:18:22;;;;;;;14.27;9.35;;;18.80;99.90;;;;;;5010277;28;20057;-41
2023/09/09 04:20:48;;;;;;;14.35;9.75;;;18.80;99.90;;;;;;4994758;28;20046;-41
2023/09/09 04:23:14;;;;;;;13.32;8.70;;;18.70;99.90;;;;;;4994829;28;20042;-41
2023/09/09 04:25:40;;;;;;;16.17;9.82;;;18.60;99.90;;;;;;4995147;28;20133;-41
2023/09/09 04:28:06;;;;;;;;;;;18.60;99.90;;;;;;4995072;28;20121;-41
2023/09/09 04:30:31;;;;;;;14.15;9.65;;;18.50;99.90;;;;;;4994701;28;20401;-41
2023/09/09 04:32:58;;;;;;;15.50;10.13;;;18.50;99.90;;;;;;4994205;28;20050;-41
2023/09/09 04:35:24;;;;;;;17.20;10.85;;;18.50;99.90;;;;;;4994004;28;20427;-41
2023/09/09 04:37:50;;;;;;;16.13;11.25;;;18.50;99.90;;;;;;4977262;28;20057;-41
2023/09/09 04:40:16;;;;;;;15.80;11.10;;;18.50;99.90;;;;;;4994569;28;20050;-41
2023/09/09 04:42:42;;;;;;;16.75;11.55;;;18.50;99.90;;;;;;4994398;28;20053;-41
2023/09/09 04:45:09;;;;;;;15.27;10.48;;;18.50;99.90;;;;;;4994695;28;20050;-41
2023/09/09 04:47:34;;;;;;;18.13;11.10;;;18.50;99.90;;;;;;4994162;28;20133;-41
2023/09/09 04:50:00;;;;;;;16.00;10.93;;;18.50;99.90;;;;;;4994219;28;20082;-41
2023/09/09 04:52:26;;;;;;;15.32;10.57;;;18.50;99.90;;;;;;4991994;28;20066;-41
2023/09/09 04:54:52;;;;;;;17.88;11.25;;;18.40;99.90;;;;;;4994358;28;20054;-41
2023/09/09 04:57:17;;;;;;;17.85;11.57;;;18.40;99.90;;;;;;4994331;28;20039;-41
2023/09/09 04:59:43;;;;;;;14.38;9.98;;;18.40;99.90;;;;;;4994451;28;20096;-41
2023/09/09 05:02:09;;;;;;;16.70;10.30;;;18.30;99.90;;;;;;4977119;28;20197;-42
2023/09/09 05:04:34;;;;;;;16.25;11.32;;;18.30;99.90;;;;;;4994294;28;20062;-41
2023/09/09 05:07:01;;;;;;;17.05;10.82;;;18.30;99.90;;;;;;4993934;28;20085;-41
2023/09/09 05:09:27;;;;;;;16.58;11.05;;;18.30;99.90;;;;;;4977381;28;20125;-41
2023/09/09 05:11:52;;;;;;;16.10;11.48;;;18.30;99.90;;;;;;4994190;28;20173;-41
2023/09/09 05:14:18;;;;;;;15.30;10.95;;;18.30;99.90;;;;;;4977194;28;20035;-41
2023/09/09 05:16:44;;;;;;;17.42;11.73;;;18.40;99.90;;;;;;4994118;28;20561;-41
2023/09/09 05:19:12;;;;;;;18.77;11.27;;;18.40;99.90;;;;;;4994002;28;20109;-41
2023/09/09 05:21:38;;;;;;;15.80;10.88;;;18.40;99.90;;;;;;4993918;28;20053;-41
2023/09/09 05:24:04;;;;;;;16.83;10.73;;;18.30;99.90;;;;;;4994095;28;20403;-41
2023/09/09 05:26:30;;;;;;;16.42;11.30;;;18.30;99.90;;;;;;4994009;28;20050;-41
2023/09/09 05:28:55;;;;;;;17.80;11.25;;;18.30;99.90;;;;;;4994206;28;20050;-41
2023/09/09 05:31:21;;;;;;;16.55;11.57;;;18.30;99.90;;;;;;4994104;28;20128;-40
2023/09/09 05:33:47;;;;;;;16.60;10.68;;;18.30;99.90;;;;;;5009168;28;20515;-41
2023/09/09 05:36:13;;;;;;;15.95;10.68;;;18.30;99.90;;;;;;4993953;28;20138;-41
2023/09/09 05:38:38;;;;;;;18.65;10.95;;;18.20;99.90;;;;;;4993920;28;20074;-41
2023/09/09 05:41:04;;;;;;;18.27;12.07;;;18.20;99.90;;;;;;4993964;28;20046;-40
2023/09/09 05:43:29;;;;;;;18.42;11.75;;;18.20;99.90;;;;;;4993908;28;20054;-40
2023/09/09 05:46:00;;;;;;;17.30;11.45;;;18.10;99.90;;;;;;4995880;28;20046;-41
2023/09/09 05:48:26;;;;;;;17.55;11.45;;;18.20;99.90;;;;;;4997364;28;20050;-41
2023/09/09 05:50:55;;;;;;;17.33;12.18;;;18.20;99.90;;;;;;4997659;28;20054;-40
2023/09/09 05:53:20;;;;;;;16.38;10.82;;;18.20;99.90;;;;;;4995229;28;20058;-41
2023/09/09 05:55:46;;;;;;;16.90;12.07;;;18.30;99.90;;;;;;4997703;28;20101;-41
2023/09/09 05:58:12;;;;;;;18.60;11.75;;;18.30;99.90;;;;;;4997367;28;20042;-40
2023/09/09 06:00:37;;;;;;;19.15;12.43;;;18.40;99.90;;;;;;4997591;28;20472;-41
2023/09/09 06:03:03;;;;;;;17.30;11.48;;;18.40;99.90;;;;;;4997186;28;20046;-41
2023/09/09 06:05:29;;;;;;;18.23;11.80;;;18.50;99.90;;;;;;4997773;28;20043;-41
2023/09/09 06:07:56;;;;;;;16.35;11.25;;;18.60;99.90;;;;;;4997342;28;20081;-41
2023/09/09 06:10:22;;;;;;;16.50;10.98;;;18.60;99.90;;;;;;4997198;28;20070;-41
2023/09/09 06:12:48;;;;;;;15.85;10.60;;;18.70;99.90;;;;;;4997178;28;20570;-41
2023/09/09 06:15:14;;;;;;;;;;;18.70;99.90;;;;;;4997686;28;20050;-41
2023/09/09 06:17:41;;;;;;;16.85;10.18;;;18.80;99.90;;;;;;4996961;28;20426;-41
2023/09/09 06:20:07;;;;;;;15.52;10.98;;;18.80;99.90;;;;;;4997094;28;20054;-41
2023/09/09 06:22:34;;;;;;;14.00;9.98;;;18.90;99.90;;;;;;4996996;28;20054;-41
2023/09/09 06:25:01;;;;;;;15.13;9.77;;;18.90;99.90;;;;;;4997155;28;20077;-41
2023/09/09 06:27:26;;;;;;;16.52;10.73;;;19.00;99.90;;;;;;4996857;28;20050;-41
2023/09/09 06:29:52;;;;;;;17.33;12.00;;;19.10;99.90;;;;;;4996865;28;20042;-42
2023/09/09 06:32:18;;;;;;;16.50;10.88;;;19.20;99.90;;;;;;4996535;28;20088;-41
2023/09/09 06:34:43;;;;;;;16.73;10.98;;;19.30;99.90;;;;;;4996873;28;20057;-41
2023/09/09 06:37:10;;;;;;;15.27;10.32;;;19.30;99.90;;;;;;4996813;28;20407;-41
2023/09/09 06:39:36;;;;;;;17.40;11.30;;;19.40;99.90;;;;;;4996754;28;20057;-41
2023/09/09 06:42:02;;;;;;;16.45;11.00;;;19.50;99.90;;;;;;4996659;28;20046;-41
2023/09/09 06:44:28;;;;;;;16.00;10.88;;;19.50;99.90;;;;;;4996655;28;20125;-41
2023/09/09 06:46:53;;;;;;;15.27;10.82;;;19.60;99.90;;;;;;4979285;28;20050;-41
2023/09/09 06:49:19;;;;;;;16.55;10.98;;;19.70;99.90;;;;;;4996480;28;20056;-41
2023/09/09 06:51:45;;;;;;;20.63;12.82;;;19.70;99.90;;;;;;4995641;28;20096;-41
2023/09/09 06:54:11;;;;;;;15.65;11.32;;;19.80;99.90;;;;;;4995199;28;20104;-41
2023/09/09 06:56:36;;;;;;;21.02;12.60;;;19.90;99.90;;;;;;4995480;28;20038;-41
2023/09/09 06:59:03;;;;;;;18.55;12.23;;;19.90;99.90;;;;;;4996461;28;20034;-41
2023/09/09 07:01:29;;;;;;;19.52;13.80;;;20.00;99.90;;;;;;4996123;28;20081;-41
2023/09/09 07:03:55;;;;;;;20.48;13.75;;;20.10;99.90;;;;;;4979687;28;20086;-41
2023/09/09 07:06:20;;;;;;;17.52;12.38;;;20.20;99.90;;;;;;4978980;28;20059;-41
2023/09/09 07:08:47;;;;;;;18.10;12.77;;;20.20;99.90;;;;;;4996293;28;20049;-41
2023/09/09 07:11:13;;;;;;;18.65;12.13;;;20.30;99.90;;;;;;4996211;28;20057;-41
2023/09/09 07:13:39;;;;;;;18.75;12.32;;;20.50;99.90;;;;;;4996109;28;20038;-42
2023/09/09 07:16:04;;;;;;;18.02;12.65;;;20.70;99.90;;;;;;4995919;28;20472;-41
2023/09/09 07:18:30;;;;;;;18.40;12.32;;;20.80;99.90;;;;;;4978589;28;20498;-41
2023/09/09 07:20:59;;;;;;;18.55;12.38;;;20.90;99.90;;;;;;4995940;28;20053;-41
2023/09/09 07:23:25;;;;;;;19.30;12.35;;;20.90;99.90;;;;;;4978791;28;20050;-41
2023/09/09 07:25:51;;;;;;;19.65;12.57;;;20.90;99.90;;;;;;4995746;28;20042;-41
2023/09/09 07:28:16;;;;;;;16.83;12.10;;;20.90;99.90;;;;;;4995629;28;20050;-41
2023/09/09 07:30:43;;;;;;;18.92;11.88;;;21.00;99.90;;;;;;4978355;28;20050;-41
2023/09/09 07:33:08;;;;;;;18.52;12.57;;;21.20;99.90;;;;;;4995690;28;20101;-41
2023/09/09 07:35:35;;;;;;;18.63;12.88;;;21.30;99.90;;;;;;4995618;28;20054;-41
2023/09/09 07:38:06;;;;;;;17.98;12.88;;;21.30;99.90;;;;;;4995648;28;20065;-41
2023/09/09 07:40:32;;;;;;;21.15;13.40;;;21.40;99.90;;;;;;4995679;28;20075;-42
2023/09/09 07:42:57;;;;;;;20.10;13.75;;;21.40;99.90;;;;;;4995342;28;20054;-41
2023/09/09 07:45:23;;;;;;;19.92;13.45;;;21.40;99.90;;;;;;4995335;28;20046;-41
2023/09/09 07:47:49;;;;;;;19.90;14.63;;;21.30;99.90;;;;;;4995741;28;20034;-41
2023/09/09 07:50:14;;;;;;;22.83;13.93;;;21.40;99.90;;;;;;4995495;28;20053;-41
2023/09/09 07:52:40;;;;;;;19.95;13.50;;;21.30;99.90;;;;;;4993134;28;20058;-41
2023/09/09 07:55:06;;;;;;;22.65;14.10;;;21.30;99.90;;;;;;4995257;28;20065;-41
2023/09/09 07:57:32;;;;;;;;;;;21.30;99.90;;;;;;4995648;28;20057;-41
2023/09/09 07:59:58;;;;;;;20.95;13.48;;;21.30;99.90;;;;;;4995040;28;19922;-41
2023/09/09 08:02:23;;;;;;;20.88;12.95;;;21.30;99.90;;;;;;4995260;28;20050;-41
2023/09/09 08:04:49;;;;;;;20.08;13.27;;;21.40;99.90;;;;;;4995175;28;20042;-41
2023/09/09 08:07:14;;;;;;;22.45;14.63;;;21.40;99.90;;;;;;4995193;28;20129;-41
2023/09/09 08:09:40;;;;;;;21.20;14.93;;;21.40;99.90;;;;;;4994774;28;20400;-41
2023/09/09 08:12:06;;;;;;;19.13;13.93;;;21.40;99.90;;;;;;4994879;28;20042;-41
2023/09/09 08:14:32;;;;;;;21.65;14.18;;;21.50;99.90;;;;;;4994820;28;20133;-41
2023/09/09 08:16:58;;;;;;;20.08;13.52;;;21.50;99.90;;;;;;4994928;28;20042;-42
2023/09/09 08:19:23;;;;;;;20.13;14.38;;;21.60;99.90;;;;;;4995201;28;20129;-41
2023/09/09 08:21:49;;;;;;;20.35;13.82;;;21.60;99.90;;;;;;4995039;28;20153;-41
2023/09/09 08:24:15;;;;;;;20.90;14.55;;;21.60;99.90;;;;;;4994804;28;20050;-41
2023/09/09 08:26:40;;;;;;;20.45;14.25;;;21.70;99.90;;;;;;4977322;28;20046;-41
2023/09/09 08:29:06;;;;;;;21.05;13.52;;;21.70;99.90;;;;;;4977193;28;20108;-41
2023/09/09 08:31:32;;;;;;;22.30;14.77;;;21.80;99.90;;;;;;4995047;28;20046;-41
2023/09/09 08:33:57;;;;;;;20.67;14.48;;;21.80;99.90;;;;;;4977571;28;20049;-42
2023/09/09 08:36:23;;;;;;;19.98;13.98;;;21.80;99.90;;;;;;4994554;28;20057;-41
2023/09/09 08:38:49;;;;;;;19.02;13.57;;;21.90;99.90;;;;;;4994463;28;20088;-42
2023/09/09 08:41:44;;;;;;;21.00;15.05;;;21.90;99.90;;;;;;4994271;28;20092;-42
2023/09/09 08:44:29;;;;;;;21.42;14.05;;;22.00;99.90;;;;;;4994496;28;20133;-41
2023/09/09 08:46:55;;;;;;;20.92;15.13;;;22.00;99.90;;;;;;4994504;28;20050;-41
2023/09/09 08:49:23;;;;;;;22.50;14.77;;;22.00;99.90;;;;;;4994392;28;20046;-41
2023/09/09 08:51:53;;;;;;;22.67;15.48;;;22.10;99.90;;;;;;4994421;28;20046;-41
2023/09/09 08:54:19;;;;;;;21.58;14.80;;;22.10;99.90;;;;;;5006163;28;20399;-41
2023/09/09 08:56:45;;;;;;;24.48;14.93;;;22.20;99.90;;;;;;4975000;28;20050;-41
2023/09/09 08:59:13;;;;;;;21.20;14.00;;;22.20;99.90;;;;;;4975087;28;20045;-41
2023/09/09 09:01:39;;;;;;;20.42;13.68;;;22.30;99.90;;;;;;4975205;28;20396;-41
2023/09/09 09:04:05;;;;;;;20.50;14.07;;;22.30;99.90;;;;;;4974767;28;20505;-41
2023/09/09 09:06:33;;;;;;;23.58;14.32;;;22.40;99.90;;;;;;4974676;28;20134;-41
2023/09/09 09:08:59;;;;;;;20.33;13.77;;;22.40;99.90;;;;;;4974433;28;20039;-41
2023/09/09 09:11:25;;;;;;;19.35;12.77;;;22.50;99.90;;;;;;4975272;28;20070;-41
2023/09/09 09:13:51;;;;;;;16.58;12.38;;;22.50;99.90;;;;;;4973855;28;20219;-41
2023/09/09 09:16:18;;;;;;;18.95;12.15;;;22.50;99.90;;;;;;4973863;28;20145;-41
2023/09/09 09:18:44;;;;;;;16.00;11.45;;;22.60;99.90;;;;;;4974684;28;20046;-41
2023/09/09 09:21:10;;;;;;;22.55;13.27;;;22.60;99.90;;;;;;4977272;28;20049;-41
2023/09/09 09:23:48;;;;;;;18.63;13.23;;;22.70;99.90;;;;;;4978438;28;20051;-42
2023/09/09 09:26:27;;;;;;;17.17;12.25;;;22.70;99.90;;;;;;4978587;28;20046;-41
2023/09/09 09:28:53;;;;;;;21.23;12.35;;;22.70;99.90;;;;;;4978486;28;20117;-41
2023/09/09 09:31:20;;;;;;;20.52;13.02;;;22.80;99.90;;;;;;4978680;28;20496;-41
2023/09/09 09:33:48;;;;;;;17.15;12.52;;;22.80;99.90;;;;;;4978437;28;20043;-41
2023/09/09 09:36:17;;;;;;;18.05;10.95;;;22.90;99.90;;;;;;4978463;28;20051;-41
2023/09/09 09:38:43;;;;;;;16.30;11.52;;;22.90;99.90;;;;;;4978418;28;20043;-41
2023/09/09 09:41:09;;;;;;;15.77;10.50;;;23.10;99.90;;;;;;4976989;28;20055;-41
2023/09/09 09:43:36;;;;;;;18.60;11.98;;;23.10;99.90;;;;;;4978074;28;20093;-42
2023/09/09 09:46:16;;;;;;;19.25;10.60;;;23.10;99.90;;;;;;4978023;28;20046;-41
2023/09/09 09:48:42;;;;;;;23.25;12.68;;;23.20;99.90;;;;;;4978010;28;20484;-41
2023/09/09 09:51:09;;;;;;;18.70;12.07;;;23.30;99.90;;;;;;4977983;28;20050;-41
2023/09/09 09:53:52;;;;;;;16.33;11.48;;;23.30;99.90;;;;;;4987331;28;20120;-41
2023/09/09 09:56:18;;;;;;;18.40;11.77;;;23.40;99.90;;;;;;4997328;28;20487;-41
2023/09/09 09:58:45;;;;;;;18.48;12.20;;;23.50;99.90;;;;;;5012901;28;20125;-42
2023/09/09 10:01:12;;;;;;;18.58;12.60;;;23.60;99.90;;;;;;4997189;28;20046;-41
2023/09/09 10:03:41;;;;;;;;;;;23.70;99.90;;;;;;4997859;28;20133;-42
2023/09/09 10:06:11;;;;;;;20.38;12.40;;;23.80;99.90;;;;;;4997371;28;19921;-42
2023/09/09 10:08:41;;;;;;;18.05;12.70;;;23.90;99.90;;;;;;4997319;28;20140;-42
2023/09/09 10:11:10;;;;;;;19.42;12.93;;;24.00;99.90;;;;;;4997375;28;20052;-42
2023/09/09 10:13:57;;;;;;;17.92;12.25;;;24.10;99.90;;;;;;4997006;28;20054;-41
2023/09/09 10:16:24;;;;;;;19.13;13.18;;;24.20;99.90;;;;;;4997201;28;20088;-42
2023/09/09 10:18:52;;;;;;;16.77;11.40;;;24.30;99.90;;;;;;4997016;28;20125;-42
2023/09/09 10:21:19;;;;;;;18.50;12.80;;;24.40;99.90;;;;;;4997220;28;20104;-41
2023/09/09 10:23:46;;;;;;;17.48;11.68;;;24.50;99.90;;;;;;4997065;28;20089;-41
2023/09/09 10:26:16;;;;;;;21.90;12.40;;;24.60;99.90;;;;;;4996906;28;20046;-41
2023/09/09 10:28:43;;;;;;;18.17;11.63;;;24.70;99.90;;;;;;4996790;28;20560;-41
2023/09/09 10:31:12;;;;;;;19.65;12.57;;;24.90;99.90;;;;;;4996828;28;20043;-42
2023/09/09 10:33:41;;;;;;;18.17;12.88;;;25.00;99.90;;;;;;4996860;28;20078;-42
2023/09/09 10:36:08;;;;;;;23.23;12.55;;;25.10;99.90;;;;;;4996925;28;20057;-41
2023/09/09 10:38:34;;;;;;;19.80;14.02;;;25.20;99.90;;;;;;4996808;28;20050;-40
2023/09/09 10:41:00;;;;;;;;;;;25.30;99.90;;;;;;4997217;28;20380;-41
2023/09/09 10:43:26;;;;;;;23.92;14.05;;;25.40;99.90;;;;;;5012184;28;19922;-41
2023/09/09 10:45:52;;;;;;;20.25;13.32;;;25.50;99.90;;;;;;4996746;28;20073;-41
2023/09/09 10:48:21;;;;;;;;;;;25.60;99.90;;;;;;4996931;28;20395;-42
2023/09/09 10:50:52;;;;;;;22.00;14.65;;;25.80;99.90;;;;;;4996508;28;19921;-43
2023/09/09 10:53:28;;;;;;;18.25;11.65;;;25.80;99.90;;;;;;4996164;28;20423;-41
2023/09/09 10:55:59;;;;;;;20.05;12.88;;;26.00;99.90;;;;;;4996511;28;20515;-41
2023/09/09 10:58:38;;;;;;;21.83;13.18;;;26.10;99.90;;;;;;4996560;28;20452;-41
2023/09/09 11:01:07;;;;;;;19.10;12.63;;;26.30;99.90;;;;;;4996396;28;20577;-42
2023/09/09 11:03:39;;;;;;;22.60;14.75;;;26.40;99.90;;;;;;4996306;28;20598;-41
2023/09/09 11:06:18;;;;;;;20.80;14.10;;;26.50;99.90;;;;;;4996728;28;20394;-41
2023/09/09 11:08:46;;;;;;;21.75;14.02;;;26.60;99.90;;;;;;4996243;28;20042;-41
2023/09/09 11:11:45;;;;;;;17.42;12.05;;;26.60;99.90;;;;;;4996019;28;20495;-41
2023/09/09 11:14:11;;;;;;;17.23;11.77;;;26.80;99.90;;;;;;4993232;28;20081;-41
2023/09/09 11:16:42;;;;;;;18.40;11.10;;;26.90;99.90;;;;;;4996452;28;20492;-41
2023/09/09 11:19:10;;;;;;;19.33;11.95;;;27.00;99.90;;;;;;5011222;28;20050;-41
2023/09/09 11:21:52;;;;;;;14.57;9.88;;;27.10;99.90;;;;;;4995816;28;20053;-41
2023/09/09 11:24:19;;;;;;;15.85;10.55;;;27.20;99.90;;;;;;4995872;28;20077;-41
2023/09/09 11:26:47;;;;;;;19.13;13.23;;;27.20;99.90;;;;;;4995661;28;20364;-41
2023/09/09 11:29:14;;;;;;;16.00;10.25;;;27.30;99.90;;;;;;4978447;28;20038;-41
2023/09/09 11:31:40;;;;;;;16.25;10.18;;;27.30;99.90;;;;;;4995742;28;20069;-41
2023/09/09 11:34:05;;;;;;;15.38;9.82;;;27.40;99.90;;;;;;4995821;28;20492;-41
2023/09/09 11:36:32;;;;;;;13.98;8.60;;;27.40;99.90;;;;;;4995652;28;20507;-41
2023/09/09 11:39:03;;;;;;;11.68;7.07;;;27.40;99.90;;;;;;4995684;28;20048;-41
2023/09/09 11:41:30;;;;;;;13.73;7.38;;;27.50;99.90;;;;;;4995677;28;20050;-41
2023/09/09 11:43:57;;;;;;;11.48;6.60;;;27.60;99.90;;;;;;4995065;28;20057;-42
2023/09/09 11:46:24;;;;;;;10.55;6.75;;;27.70;99.90;;;;;;4995527;28;20062;-40
2023/09/09 11:48:50;;;;;;;12.48;7.18;;;27.80;99.90;;;;;;4995405;28;20054;-41
2023/09/09 11:51:16;;;;;;;12.73;7.90;;;27.80;99.90;;;;;;4995409;28;20050;-41
2023/09/09 11:53:42;;;;;;;14.57;8.88;;;27.80;99.90;;;;;;4974382;28;20059;-41
2023/09/09 11:56:07;;;;;;;10.65;6.45;;;27.90;99.90;;;;;;4975999;28;20135;-41
2023/09/09 11:58:43;;;;;;;10.52;6.95;;;27.90;99.90;;;;;;4975901;28;20088;-40
2023/09/09 12:01:10;;;;;;;10.45;6.15;;;27.90;99.90;;;;;;4974979;28;20058;-41
2023/09/09 12:03:36;;;;;;;9.15;5.80;;;27.90;99.90;;;;;;4975618;28;20086;-41
2023/09/09 12:06:04;;;;;;;10.77;6.70;;;28.00;99.90;;;;;;4975696;28;20042;-42
2023/09/09 12:08:30;;;;;;;10.48;7.30;;;28.00;99.90;;;;;;4975601;28;20049;-41
2023/09/09 12:10:57;;;;;;;9.45;6.07;;;28.00;99.90;;;;;;5007403;28;20055;-41
2023/09/09 12:13:23;;;;;;;12.05;7.45;;;28.10;99.90;;;;;;4975523;28;20057;-41
2023/09/09 12:15:49;;;;;;;14.50;8.52;;;28.10;99.90;;;;;;4975647;28;20050;-41
2023/09/09 12:18:15;;;;;;;11.13;6.22;;;28.20;99.90;;;;;;4974455;28;20066;-42
2023/09/09 12:21:03;;;;;;;13.57;8.63;;;28.20;99.90;;;;;;4975488;28;20057;-43
2023/09/09 12:23:34;;;;;;;10.43;6.95;;;28.30;99.90;;;;;;4975868;28;20043;-43
2023/09/09 12:26:13;;;;;;;10.30;6.20;;;28.30;99.90;;;;;;4975723;28;20122;-42
2023/09/09 12:28:40;;;;;;;13.13;7.05;;;28.30;99.90;;;;;;4974081;28;20051;-41
2023/09/09 12:31:07;;;;;;;9.93;5.78;;;28.30;99.90;;;;;;4975081;28;20098;-41
2023/09/09 12:33:44;;;;;;;11.10;6.35;;;28.40;99.90;;;;;;4975354;28;20078;-41